sensor_id;sensor_type;location;lat;lon;timestamp;P1;durP1;ratioP1;P2;durP2;ratioP2
45136;SDS011;30894;51.740;19.498;2024-03-17T00:01:08;8.05;;;2.42;;
45136;SDS011;30894;51.740;19.498;2024-03-17T00:03:55;5.03;;;2.17;;
45136;SDS011;30894;51.740;19.498;2024-03-17T00:06:23;11.18;;;2.88;;
45136;SDS011;30894;51.740;19.498;2024-03-17T00:08:49;7.47;;;2.75;;
45136;SDS011;30894;51.740;19.498;2024-03-17T00:11:16;7.75;;;1.88;;
45136;SDS011;30894;51.740;19.498;2024-03-17T00:13:42;6.10;;;2.20;;
45136;SDS011;30894;51.740;19.498;2024-03-17T00:16:08;7.00;;;2.13;;
45136;SDS011;30894;51.740;19.498;2024-03-17T00:18:34;6.72;;;1.88;;
45136;SDS011;30894;51.740;19.498;2024-03-17T00:21:05;4.63;;;1.75;;
45136;SDS011;30894;51.740;19.498;2024-03-17T00:23:31;10.80;;;2.70;;
45136;SDS011;30894;51.740;19.498;2024-03-17T00:25:57;9.43;;;2.25;;
45136;SDS011;30894;51.740;19.498;2024-03-17T00:28:23;8.65;;;2.25;;
45136;SDS011;30894;51.740;19.498;2024-03-17T00:30:50;5.45;;;2.00;;
45136;SDS011;30894;51.740;19.498;2024-03-17T00:33:16;5.35;;;1.88;;
45136;SDS011;30894;51.740;19.498;2024-03-17T00:35:44;7.30;;;1.98;;
45136;SDS011;30894;51.740;19.498;2024-03-17T00:38:11;5.93;;;2.35;;
45136;SDS011;30894;51.740;19.498;2024-03-17T00:40:40;9.32;;;2.63;;
45136;SDS011;30894;51.740;19.498;2024-03-17T00:43:10;10.50;;;2.42;;
45136;SDS011;30894;51.740;19.498;2024-03-17T00:45:40;4.55;;;2.17;;
45136;SDS011;30894;51.740;19.498;2024-03-17T00:48:07;6.93;;;2.58;;
45136;SDS011;30894;51.740;19.498;2024-03-17T00:50:33;9.93;;;2.97;;
45136;SDS011;30894;51.740;19.498;2024-03-17T00:52:59;5.38;;;1.60;;
45136;SDS011;30894;51.740;19.498;2024-03-17T00:55:28;8.35;;;2.90;;
45136;SDS011;30894;51.740;19.498;2024-03-17T00:57:54;8.18;;;2.97;;
45136;SDS011;30894;51.740;19.498;2024-03-17T01:00:21;7.00;;;2.38;;
45136;SDS011;30894;51.740;19.498;2024-03-17T01:02:48;6.05;;;2.35;;
45136;SDS011;30894;51.740;19.498;2024-03-17T01:05:14;5.00;;;2.22;;
45136;SDS011;30894;51.740;19.498;2024-03-17T01:07:41;8.88;;;2.25;;
45136;SDS011;30894;51.740;19.498;2024-03-17T01:10:07;9.15;;;3.00;;
45136;SDS011;30894;51.740;19.498;2024-03-17T01:12:34;7.65;;;2.67;;
45136;SDS011;30894;51.740;19.498;2024-03-17T01:15:02;7.65;;;2.55;;
45136;SDS011;30894;51.740;19.498;2024-03-17T01:17:30;7.30;;;3.00;;
45136;SDS011;30894;51.740;19.498;2024-03-17T01:19:57;8.45;;;3.15;;
45136;SDS011;30894;51.740;19.498;2024-03-17T01:22:23;9.35;;;3.33;;
45136;SDS011;30894;51.740;19.498;2024-03-17T01:24:50;8.90;;;3.25;;
45136;SDS011;30894;51.740;19.498;2024-03-17T01:27:16;14.00;;;3.47;;
45136;SDS011;30894;51.740;19.498;2024-03-17T01:29:42;6.47;;;2.88;;
45136;SDS011;30894;51.740;19.498;2024-03-17T01:32:12;9.65;;;3.65;;
45136;SDS011;30894;51.740;19.498;2024-03-17T01:34:38;9.50;;;2.97;;
45136;SDS011;30894;51.740;19.498;2024-03-17T01:37:07;11.70;;;3.97;;
45136;SDS011;30894;51.740;19.498;2024-03-17T01:39:34;7.78;;;3.08;;
45136;SDS011;30894;51.740;19.498;2024-03-17T01:42:03;8.32;;;3.72;;
45136;SDS011;30894;51.740;19.498;2024-03-17T01:44:29;9.07;;;3.50;;
45136;SDS011;30894;51.740;19.498;2024-03-17T01:46:56;11.38;;;4.07;;
45136;SDS011;30894;51.740;19.498;2024-03-17T01:49:22;11.88;;;4.25;;
45136;SDS011;30894;51.740;19.498;2024-03-17T01:51:51;12.55;;;3.78;;
45136;SDS011;30894;51.740;19.498;2024-03-17T01:54:19;13.05;;;3.63;;
45136;SDS011;30894;51.740;19.498;2024-03-17T01:56:45;13.52;;;4.13;;
45136;SDS011;30894;51.740;19.498;2024-03-17T01:59:13;9.45;;;4.38;;
45136;SDS011;30894;51.740;19.498;2024-03-17T02:04:21;10.50;;;3.42;;
45136;SDS011;30894;51.740;19.498;2024-03-17T02:06:51;9.23;;;4.25;;
45136;SDS011;30894;51.740;19.498;2024-03-17T02:09:17;6.82;;;3.05;;
45136;SDS011;30894;51.740;19.498;2024-03-17T02:11:47;12.48;;;3.88;;
45136;SDS011;30894;51.740;19.498;2024-03-17T02:17:02;10.25;;;3.58;;
45136;SDS011;30894;51.740;19.498;2024-03-17T02:19:29;9.68;;;3.90;;
45136;SDS011;30894;51.740;19.498;2024-03-17T02:22:01;9.32;;;3.33;;
45136;SDS011;30894;51.740;19.498;2024-03-17T02:24:34;8.30;;;3.15;;
45136;SDS011;30894;51.740;19.498;2024-03-17T02:27:00;14.30;;;3.75;;
45136;SDS011;30894;51.740;19.498;2024-03-17T02:29:31;7.75;;;3.75;;
45136;SDS011;30894;51.740;19.498;2024-03-17T02:32:07;16.92;;;4.80;;
45136;SDS011;30894;51.740;19.498;2024-03-17T02:34:36;7.85;;;3.50;;
45136;SDS011;30894;51.740;19.498;2024-03-17T02:37:07;11.05;;;3.63;;
45136;SDS011;30894;51.740;19.498;2024-03-17T02:39:34;7.68;;;3.08;;
45136;SDS011;30894;51.740;19.498;2024-03-17T02:42:01;9.18;;;3.70;;
45136;SDS011;30894;51.740;19.498;2024-03-17T02:44:33;11.45;;;3.28;;
45136;SDS011;30894;51.740;19.498;2024-03-17T02:47:03;8.88;;;3.40;;
45136;SDS011;30894;51.740;19.498;2024-03-17T02:49:36;10.02;;;3.03;;
45136;SDS011;30894;51.740;19.498;2024-03-17T02:52:09;10.93;;;3.28;;
45136;SDS011;30894;51.740;19.498;2024-03-17T02:54:37;10.40;;;3.58;;
45136;SDS011;30894;51.740;19.498;2024-03-17T02:57:08;8.80;;;3.40;;
45136;SDS011;30894;51.740;19.498;2024-03-17T02:59:35;11.10;;;3.33;;
45136;SDS011;30894;51.740;19.498;2024-03-17T03:02:02;8.57;;;3.33;;
45136;SDS011;30894;51.740;19.498;2024-03-17T03:04:34;11.52;;;3.92;;
45136;SDS011;30894;51.740;19.498;2024-03-17T03:07:02;12.18;;;3.45;;
45136;SDS011;30894;51.740;19.498;2024-03-17T03:09:29;5.28;;;2.60;;
45136;SDS011;30894;51.740;19.498;2024-03-17T03:12:00;11.00;;;3.80;;
45136;SDS011;30894;51.740;19.498;2024-03-17T03:14:34;11.80;;;3.25;;
45136;SDS011;30894;51.740;19.498;2024-03-17T03:17:01;8.25;;;2.78;;
45136;SDS011;30894;51.740;19.498;2024-03-17T03:19:30;12.70;;;3.20;;
45136;SDS011;30894;51.740;19.498;2024-03-17T03:22:00;7.53;;;2.92;;
45136;SDS011;30894;51.740;19.498;2024-03-17T03:24:26;9.10;;;3.53;;
45136;SDS011;30894;51.740;19.498;2024-03-17T03:26:58;9.73;;;3.25;;
45136;SDS011;30894;51.740;19.498;2024-03-17T03:29:29;9.80;;;2.97;;
45136;SDS011;30894;51.740;19.498;2024-03-17T03:31:59;9.63;;;3.28;;
45136;SDS011;30894;51.740;19.498;2024-03-17T03:34:26;12.85;;;3.35;;
45136;SDS011;30894;51.740;19.498;2024-03-17T03:36:52;5.00;;;2.38;;
45136;SDS011;30894;51.740;19.498;2024-03-17T03:39:25;12.85;;;2.97;;
45136;SDS011;30894;51.740;19.498;2024-03-17T03:42:01;5.78;;;2.70;;
45136;SDS011;30894;51.740;19.498;2024-03-17T03:44:27;6.90;;;2.97;;
45136;SDS011;30894;51.740;19.498;2024-03-17T03:46:57;4.32;;;2.28;;
45136;SDS011;30894;51.740;19.498;2024-03-17T03:49:26;7.50;;;3.17;;
45136;SDS011;30894;51.740;19.498;2024-03-17T03:51:56;8.23;;;2.83;;
45136;SDS011;30894;51.740;19.498;2024-03-17T03:54:28;5.05;;;2.60;;
45136;SDS011;30894;51.740;19.498;2024-03-17T03:56:55;10.02;;;2.83;;
45136;SDS011;30894;51.740;19.498;2024-03-17T03:59:28;9.43;;;2.60;;
45136;SDS011;30894;51.740;19.498;2024-03-17T04:01:55;4.88;;;2.58;;
45136;SDS011;30894;51.740;19.498;2024-03-17T04:04:26;10.32;;;2.65;;
45136;SDS011;30894;51.740;19.498;2024-03-17T04:06:53;8.73;;;2.17;;
45136;SDS011;30894;51.740;19.498;2024-03-17T04:09:20;6.70;;;2.03;;
45136;SDS011;30894;51.740;19.498;2024-03-17T04:11:49;9.35;;;2.03;;
45136;SDS011;30894;51.740;19.498;2024-03-17T04:14:15;5.22;;;2.30;;
45136;SDS011;30894;51.740;19.498;2024-03-17T04:16:42;6.10;;;2.53;;
45136;SDS011;30894;51.740;19.498;2024-03-17T04:19:08;6.90;;;2.00;;
45136;SDS011;30894;51.740;19.498;2024-03-17T04:21:37;6.65;;;2.30;;
45136;SDS011;30894;51.740;19.498;2024-03-17T04:24:04;5.50;;;2.72;;
45136;SDS011;30894;51.740;19.498;2024-03-17T04:26:34;11.35;;;3.15;;
45136;SDS011;30894;51.740;19.498;2024-03-17T04:29:00;5.75;;;2.00;;
45136;SDS011;30894;51.740;19.498;2024-03-17T04:31:29;8.43;;;2.45;;
45136;SDS011;30894;51.740;19.498;2024-03-17T04:34:01;10.07;;;3.13;;
45136;SDS011;30894;51.740;19.498;2024-03-17T04:36:32;4.50;;;1.83;;
45136;SDS011;30894;51.740;19.498;2024-03-17T04:39:01;13.05;;;2.42;;
45136;SDS011;30894;51.740;19.498;2024-03-17T04:41:36;7.57;;;2.25;;
45136;SDS011;30894;51.740;19.498;2024-03-17T04:44:04;9.52;;;2.63;;
45136;SDS011;30894;51.740;19.498;2024-03-17T04:46:46;10.07;;;3.08;;
45136;SDS011;30894;51.740;19.498;2024-03-17T04:49:12;7.72;;;2.35;;
45136;SDS011;30894;51.740;19.498;2024-03-17T04:51:41;10.57;;;2.63;;
45136;SDS011;30894;51.740;19.498;2024-03-17T04:54:10;10.40;;;2.15;;
45136;SDS011;30894;51.740;19.498;2024-03-17T04:56:38;12.10;;;2.50;;
45136;SDS011;30894;51.740;19.498;2024-03-17T04:59:05;8.98;;;2.58;;
45136;SDS011;30894;51.740;19.498;2024-03-17T05:01:36;6.43;;;2.25;;
45136;SDS011;30894;51.740;19.498;2024-03-17T05:04:08;9.55;;;2.58;;
45136;SDS011;30894;51.740;19.498;2024-03-17T05:06:34;9.00;;;2.72;;
45136;SDS011;30894;51.740;19.498;2024-03-17T05:09:01;10.75;;;2.72;;
45136;SDS011;30894;51.740;19.498;2024-03-17T05:11:33;9.38;;;3.05;;
45136;SDS011;30894;51.740;19.498;2024-03-17T05:14:03;8.80;;;2.72;;
45136;SDS011;30894;51.740;19.498;2024-03-17T05:16:30;11.07;;;2.33;;
45136;SDS011;30894;51.740;19.498;2024-03-17T05:19:00;11.02;;;2.20;;
45136;SDS011;30894;51.740;19.498;2024-03-17T05:21:32;6.47;;;2.65;;
45136;SDS011;30894;51.740;19.498;2024-03-17T05:24:00;10.73;;;3.05;;
45136;SDS011;30894;51.740;19.498;2024-03-17T05:26:29;4.68;;;2.28;;
45136;SDS011;30894;51.740;19.498;2024-03-17T05:28:58;7.38;;;2.03;;
45136;SDS011;30894;51.740;19.498;2024-03-17T05:31:29;13.02;;;2.05;;
45136;SDS011;30894;51.740;19.498;2024-03-17T05:33:58;5.13;;;1.85;;
45136;SDS011;30894;51.740;19.498;2024-03-17T05:36:38;6.32;;;2.15;;
45136;SDS011;30894;51.740;19.498;2024-03-17T05:39:05;8.10;;;2.10;;
45136;SDS011;30894;51.740;19.498;2024-03-17T05:41:55;7.22;;;2.05;;
45136;SDS011;30894;51.740;19.498;2024-03-17T05:44:42;5.25;;;2.15;;
45136;SDS011;30894;51.740;19.498;2024-03-17T05:47:16;12.25;;;2.42;;
45136;SDS011;30894;51.740;19.498;2024-03-17T05:49:43;18.88;;;2.88;;
45136;SDS011;30894;51.740;19.498;2024-03-17T05:52:12;11.65;;;2.22;;
45136;SDS011;30894;51.740;19.498;2024-03-17T05:54:38;5.50;;;1.60;;
45136;SDS011;30894;51.740;19.498;2024-03-17T05:57:10;9.15;;;2.10;;
45136;SDS011;30894;51.740;19.498;2024-03-17T05:59:39;7.00;;;2.15;;
45136;SDS011;30894;51.740;19.498;2024-03-17T06:02:05;8.20;;;1.90;;
45136;SDS011;30894;51.740;19.498;2024-03-17T06:04:33;10.38;;;2.20;;
45136;SDS011;30894;51.740;19.498;2024-03-17T06:07:02;10.02;;;2.25;;
45136;SDS011;30894;51.740;19.498;2024-03-17T06:09:30;10.30;;;2.20;;
45136;SDS011;30894;51.740;19.498;2024-03-17T06:11:57;9.73;;;2.05;;
45136;SDS011;30894;51.740;19.498;2024-03-17T06:14:34;9.15;;;2.28;;
45136;SDS011;30894;51.740;19.498;2024-03-17T06:17:00;2.17;;;1.08;;
45136;SDS011;30894;51.740;19.498;2024-03-17T06:19:27;5.05;;;1.30;;
45136;SDS011;30894;51.740;19.498;2024-03-17T06:21:53;10.05;;;2.00;;
45136;SDS011;30894;51.740;19.498;2024-03-17T06:24:22;9.07;;;1.67;;
45136;SDS011;30894;51.740;19.498;2024-03-17T06:26:50;6.88;;;1.92;;
45136;SDS011;30894;51.740;19.498;2024-03-17T06:29:18;4.20;;;1.58;;
45136;SDS011;30894;51.740;19.498;2024-03-17T06:31:45;8.38;;;1.95;;
45136;SDS011;30894;51.740;19.498;2024-03-17T06:34:12;8.43;;;2.30;;
45136;SDS011;30894;51.740;19.498;2024-03-17T06:36:41;10.77;;;2.55;;
45136;SDS011;30894;51.740;19.498;2024-03-17T06:39:08;4.75;;;1.60;;
45136;SDS011;30894;51.740;19.498;2024-03-17T06:41:39;5.78;;;2.03;;
45136;SDS011;30894;51.740;19.498;2024-03-17T06:44:05;7.90;;;2.45;;
45136;SDS011;30894;51.740;19.498;2024-03-17T06:46:32;10.75;;;2.53;;
45136;SDS011;30894;51.740;19.498;2024-03-17T06:48:59;9.60;;;2.10;;
45136;SDS011;30894;51.740;19.498;2024-03-17T06:51:27;11.50;;;2.80;;
45136;SDS011;30894;51.740;19.498;2024-03-17T06:53:53;5.90;;;2.17;;
45136;SDS011;30894;51.740;19.498;2024-03-17T06:56:21;9.10;;;2.30;;
45136;SDS011;30894;51.740;19.498;2024-03-17T06:58:50;6.00;;;1.90;;
45136;SDS011;30894;51.740;19.498;2024-03-17T07:01:20;7.03;;;1.85;;
45136;SDS011;30894;51.740;19.498;2024-03-17T07:03:48;10.57;;;1.60;;
45136;SDS011;30894;51.740;19.498;2024-03-17T07:06:19;7.40;;;1.55;;
45136;SDS011;30894;51.740;19.498;2024-03-17T07:08:45;7.88;;;1.85;;
45136;SDS011;30894;51.740;19.498;2024-03-17T07:11:13;4.50;;;1.75;;
45136;SDS011;30894;51.740;19.498;2024-03-17T07:13:41;6.68;;;1.65;;
45136;SDS011;30894;51.740;19.498;2024-03-17T07:16:09;6.53;;;1.67;;
45136;SDS011;30894;51.740;19.498;2024-03-17T07:18:43;8.70;;;1.58;;
45136;SDS011;30894;51.740;19.498;2024-03-17T07:21:14;7.22;;;1.95;;
45136;SDS011;30894;51.740;19.498;2024-03-17T07:23:40;6.50;;;1.45;;
45136;SDS011;30894;51.740;19.498;2024-03-17T07:26:06;8.50;;;1.65;;
45136;SDS011;30894;51.740;19.498;2024-03-17T07:28:34;5.18;;;1.35;;
45136;SDS011;30894;51.740;19.498;2024-03-17T07:31:08;9.02;;;2.00;;
45136;SDS011;30894;51.740;19.498;2024-03-17T07:33:35;5.20;;;1.35;;
45136;SDS011;30894;51.740;19.498;2024-03-17T07:36:03;6.97;;;1.38;;
45136;SDS011;30894;51.740;19.498;2024-03-17T07:38:30;7.38;;;1.27;;
45136;SDS011;30894;51.740;19.498;2024-03-17T07:41:01;6.70;;;1.60;;
45136;SDS011;30894;51.740;19.498;2024-03-17T07:43:31;5.20;;;1.42;;
45136;SDS011;30894;51.740;19.498;2024-03-17T07:46:05;6.65;;;1.38;;
45136;SDS011;30894;51.740;19.498;2024-03-17T07:48:33;2.85;;;1.13;;
45136;SDS011;30894;51.740;19.498;2024-03-17T07:51:13;4.03;;;1.50;;
45136;SDS011;30894;51.740;19.498;2024-03-17T07:53:42;5.28;;;1.55;;
45136;SDS011;30894;51.740;19.498;2024-03-17T07:56:14;9.40;;;1.20;;
45136;SDS011;30894;51.740;19.498;2024-03-17T07:58:44;8.07;;;1.75;;
45136;SDS011;30894;51.740;19.498;2024-03-17T08:01:12;4.03;;;1.25;;
45136;SDS011;30894;51.740;19.498;2024-03-17T08:03:47;6.88;;;1.23;;
45136;SDS011;30894;51.740;19.498;2024-03-17T08:06:24;3.97;;;1.27;;
45136;SDS011;30894;51.740;19.498;2024-03-17T08:08:53;7.53;;;1.50;;
45136;SDS011;30894;51.740;19.498;2024-03-17T08:11:22;5.75;;;1.48;;
45136;SDS011;30894;51.740;19.498;2024-03-17T08:13:50;6.28;;;1.73;;
45136;SDS011;30894;51.740;19.498;2024-03-17T08:16:16;8.25;;;1.38;;
45136;SDS011;30894;51.740;19.498;2024-03-17T08:18:42;10.30;;;2.08;;
45136;SDS011;30894;51.740;19.498;2024-03-17T08:21:11;5.25;;;1.88;;
45136;SDS011;30894;51.740;19.498;2024-03-17T08:23:49;5.40;;;1.55;;
45136;SDS011;30894;51.740;19.498;2024-03-17T08:26:18;6.90;;;0.95;;
45136;SDS011;30894;51.740;19.498;2024-03-17T08:28:49;5.45;;;1.48;;
45136;SDS011;30894;51.740;19.498;2024-03-17T08:31:20;6.15;;;1.27;;
45136;SDS011;30894;51.740;19.498;2024-03-17T08:33:52;6.80;;;1.40;;
45136;SDS011;30894;51.740;19.498;2024-03-17T08:36:19;6.97;;;1.30;;
45136;SDS011;30894;51.740;19.498;2024-03-17T08:38:46;9.82;;;1.60;;
45136;SDS011;30894;51.740;19.498;2024-03-17T08:41:16;5.30;;;1.63;;
45136;SDS011;30894;51.740;19.498;2024-03-17T08:43:42;6.32;;;1.20;;
45136;SDS011;30894;51.740;19.498;2024-03-17T08:46:10;6.13;;;2.40;;
45136;SDS011;30894;51.740;19.498;2024-03-17T08:48:39;5.15;;;1.48;;
45136;SDS011;30894;51.740;19.498;2024-03-17T08:51:13;8.77;;;1.70;;
45136;SDS011;30894;51.740;19.498;2024-03-17T08:53:40;7.63;;;1.75;;
45136;SDS011;30894;51.740;19.498;2024-03-17T08:56:15;4.38;;;1.67;;
45136;SDS011;30894;51.740;19.498;2024-03-17T08:58:57;6.45;;;1.48;;
45136;SDS011;30894;51.740;19.498;2024-03-17T09:01:47;10.13;;;3.00;;
45136;SDS011;30894;51.740;19.498;2024-03-17T09:04:42;5.15;;;1.58;;
45136;SDS011;30894;51.740;19.498;2024-03-17T09:07:09;6.57;;;1.60;;
45136;SDS011;30894;51.740;19.498;2024-03-17T09:09:37;5.80;;;1.55;;
45136;SDS011;30894;51.740;19.498;2024-03-17T09:12:04;3.95;;;1.75;;
45136;SDS011;30894;51.740;19.498;2024-03-17T09:14:49;4.68;;;1.40;;
45136;SDS011;30894;51.740;19.498;2024-03-17T09:17:17;5.22;;;2.00;;
45136;SDS011;30894;51.740;19.498;2024-03-17T09:19:48;7.15;;;2.28;;
45136;SDS011;30894;51.740;19.498;2024-03-17T09:22:15;3.85;;;1.40;;
45136;SDS011;30894;51.740;19.498;2024-03-17T09:24:45;4.07;;;1.83;;
45136;SDS011;30894;51.740;19.498;2024-03-17T09:27:13;5.57;;;1.52;;
45136;SDS011;30894;51.740;19.498;2024-03-17T09:29:59;7.22;;;1.80;;
45136;SDS011;30894;51.740;19.498;2024-03-17T09:32:35;7.05;;;1.63;;
45136;SDS011;30894;51.740;19.498;2024-03-17T09:35:06;6.50;;;1.90;;
45136;SDS011;30894;51.740;19.498;2024-03-17T09:37:35;5.53;;;2.33;;
45136;SDS011;30894;51.740;19.498;2024-03-17T09:40:04;6.90;;;1.35;;
45136;SDS011;30894;51.740;19.498;2024-03-17T09:42:33;6.88;;;1.52;;
45136;SDS011;30894;51.740;19.498;2024-03-17T09:45:05;6.05;;;1.30;;
45136;SDS011;30894;51.740;19.498;2024-03-17T09:50:29;6.93;;;1.90;;
45136;SDS011;30894;51.740;19.498;2024-03-17T09:53:02;4.60;;;1.88;;
45136;SDS011;30894;51.740;19.498;2024-03-17T09:55:32;7.82;;;2.15;;
45136;SDS011;30894;51.740;19.498;2024-03-17T09:58:34;4.80;;;1.90;;
45136;SDS011;30894;51.740;19.498;2024-03-17T10:01:51;8.63;;;1.85;;
45136;SDS011;30894;51.740;19.498;2024-03-17T10:05:16;8.27;;;2.20;;
45136;SDS011;30894;51.740;19.498;2024-03-17T10:08:22;3.70;;;1.92;;
45136;SDS011;30894;51.740;19.498;2024-03-17T10:10:55;6.50;;;1.95;;
45136;SDS011;30894;51.740;19.498;2024-03-17T10:13:36;6.88;;;2.08;;
45136;SDS011;30894;51.740;19.498;2024-03-17T10:16:24;6.38;;;1.70;;
45136;SDS011;30894;51.740;19.498;2024-03-17T10:19:12;6.82;;;2.28;;
45136;SDS011;30894;51.740;19.498;2024-03-17T10:21:59;5.20;;;1.80;;
45136;SDS011;30894;51.740;19.498;2024-03-17T10:24:31;6.90;;;2.15;;
45136;SDS011;30894;51.740;19.498;2024-03-17T10:27:07;7.75;;;2.65;;
45136;SDS011;30894;51.740;19.498;2024-03-17T10:29:45;5.68;;;2.35;;
45136;SDS011;30894;51.740;19.498;2024-03-17T10:32:20;6.32;;;2.05;;
45136;SDS011;30894;51.740;19.498;2024-03-17T10:34:50;7.38;;;1.90;;
45136;SDS011;30894;51.740;19.498;2024-03-17T10:37:18;6.55;;;2.00;;
45136;SDS011;30894;51.740;19.498;2024-03-17T10:39:51;5.93;;;2.17;;
45136;SDS011;30894;51.740;19.498;2024-03-17T10:42:26;9.23;;;2.28;;
45136;SDS011;30894;51.740;19.498;2024-03-17T10:44:54;10.07;;;2.20;;
45136;SDS011;30894;51.740;19.498;2024-03-17T10:47:26;7.53;;;1.92;;
45136;SDS011;30894;51.740;19.498;2024-03-17T10:49:54;7.10;;;1.85;;
45136;SDS011;30894;51.740;19.498;2024-03-17T10:52:23;5.93;;;2.05;;
45136;SDS011;30894;51.740;19.498;2024-03-17T10:54:55;8.10;;;2.40;;
45136;SDS011;30894;51.740;19.498;2024-03-17T10:57:38;16.80;;;3.10;;
45136;SDS011;30894;51.740;19.498;2024-03-17T11:00:18;9.90;;;2.40;;
45136;SDS011;30894;51.740;19.498;2024-03-17T11:02:49;12.23;;;2.20;;
45136;SDS011;30894;51.740;19.498;2024-03-17T11:05:24;8.45;;;2.30;;
45136;SDS011;30894;51.740;19.498;2024-03-17T11:08:00;8.85;;;2.72;;
45136;SDS011;30894;51.740;19.498;2024-03-17T11:10:30;7.97;;;2.45;;
45136;SDS011;30894;51.740;19.498;2024-03-17T11:13:23;7.53;;;2.75;;
45136;SDS011;30894;51.740;19.498;2024-03-17T11:15:57;5.63;;;2.20;;
45136;SDS011;30894;51.740;19.498;2024-03-17T11:18:29;8.57;;;2.53;;
45136;SDS011;30894;51.740;19.498;2024-03-17T11:21:19;6.80;;;2.53;;
45136;SDS011;30894;51.740;19.498;2024-03-17T11:23:59;4.80;;;2.17;;
45136;SDS011;30894;51.740;19.498;2024-03-17T11:26:29;5.18;;;2.42;;
45136;SDS011;30894;51.740;19.498;2024-03-17T11:28:59;5.85;;;2.08;;
45136;SDS011;30894;51.740;19.498;2024-03-17T11:34:28;6.25;;;2.95;;
45136;SDS011;30894;51.740;19.498;2024-03-17T11:36:57;10.02;;;3.25;;
45136;SDS011;30894;51.740;19.498;2024-03-17T11:42:24;4.70;;;2.25;;
45136;SDS011;30894;51.740;19.498;2024-03-17T11:44:57;4.68;;;2.00;;
45136;SDS011;30894;51.740;19.498;2024-03-17T11:47:34;3.55;;;2.08;;
45136;SDS011;30894;51.740;19.498;2024-03-17T11:50:10;4.93;;;2.03;;
45136;SDS011;30894;51.740;19.498;2024-03-17T11:52:38;6.30;;;2.60;;
45136;SDS011;30894;51.740;19.498;2024-03-17T11:55:26;6.85;;;1.98;;
45136;SDS011;30894;51.740;19.498;2024-03-17T11:57:56;9.35;;;2.75;;
45136;SDS011;30894;51.740;19.498;2024-03-17T12:00:22;6.35;;;2.40;;
45136;SDS011;30894;51.740;19.498;2024-03-17T12:02:56;6.25;;;2.70;;
45136;SDS011;30894;51.740;19.498;2024-03-17T12:05:24;4.20;;;2.20;;
45136;SDS011;30894;51.740;19.498;2024-03-17T12:07:51;12.35;;;2.35;;
45136;SDS011;30894;51.740;19.498;2024-03-17T12:10:19;5.65;;;1.95;;
45136;SDS011;30894;51.740;19.498;2024-03-17T12:12:49;5.20;;;1.30;;
45136;SDS011;30894;51.740;19.498;2024-03-17T12:15:19;5.00;;;1.88;;
45136;SDS011;30894;51.740;19.498;2024-03-17T12:17:56;5.13;;;1.85;;
45136;SDS011;30894;51.740;19.498;2024-03-17T12:20:28;7.13;;;1.90;;
45136;SDS011;30894;51.740;19.498;2024-03-17T12:23:11;5.90;;;1.38;;
45136;SDS011;30894;51.740;19.498;2024-03-17T12:25:49;5.25;;;1.30;;
45136;SDS011;30894;51.740;19.498;2024-03-17T12:28:16;5.57;;;1.65;;
45136;SDS011;30894;51.740;19.498;2024-03-17T12:30:42;7.15;;;1.65;;
45136;SDS011;30894;51.740;19.498;2024-03-17T12:33:10;8.88;;;2.10;;
45136;SDS011;30894;51.740;19.498;2024-03-17T12:35:39;6.63;;;1.70;;
45136;SDS011;30894;51.740;19.498;2024-03-17T12:38:24;3.50;;;1.88;;
45136;SDS011;30894;51.740;19.498;2024-03-17T12:40:51;4.88;;;1.30;;
45136;SDS011;30894;51.740;19.498;2024-03-17T12:43:18;6.07;;;1.58;;
45136;SDS011;30894;51.740;19.498;2024-03-17T12:45:44;6.40;;;1.58;;
45136;SDS011;30894;51.740;19.498;2024-03-17T12:48:13;3.53;;;1.40;;
45136;SDS011;30894;51.740;19.498;2024-03-17T12:50:48;3.50;;;1.80;;
45136;SDS011;30894;51.740;19.498;2024-03-17T12:53:19;6.93;;;1.90;;
45136;SDS011;30894;51.740;19.498;2024-03-17T12:55:54;7.68;;;1.70;;
45136;SDS011;30894;51.740;19.498;2024-03-17T12:58:41;7.38;;;2.33;;
45136;SDS011;30894;51.740;19.498;2024-03-17T13:01:26;2.75;;;1.40;;
45136;SDS011;30894;51.740;19.498;2024-03-17T13:03:53;4.55;;;1.95;;
45136;SDS011;30894;51.740;19.498;2024-03-17T13:06:22;9.40;;;2.45;;
45136;SDS011;30894;51.740;19.498;2024-03-17T13:08:50;7.10;;;2.42;;
45136;SDS011;30894;51.740;19.498;2024-03-17T13:11:17;10.07;;;2.55;;
45136;SDS011;30894;51.740;19.498;2024-03-17T13:13:44;8.15;;;2.40;;
45136;SDS011;30894;51.740;19.498;2024-03-17T13:16:12;6.88;;;2.40;;
45136;SDS011;30894;51.740;19.498;2024-03-17T13:18:39;5.72;;;2.20;;
45136;SDS011;30894;51.740;19.498;2024-03-17T13:21:07;7.50;;;2.60;;
45136;SDS011;30894;51.740;19.498;2024-03-17T13:23:34;4.25;;;2.10;;
45136;SDS011;30894;51.740;19.498;2024-03-17T13:26:00;6.45;;;2.20;;
45136;SDS011;30894;51.740;19.498;2024-03-17T13:28:27;7.38;;;2.38;;
45136;SDS011;30894;51.740;19.498;2024-03-17T13:31:02;9.88;;;2.25;;
45136;SDS011;30894;51.740;19.498;2024-03-17T13:33:31;4.13;;;1.83;;
45136;SDS011;30894;51.740;19.498;2024-03-17T13:36:04;5.95;;;2.20;;
45136;SDS011;30894;51.740;19.498;2024-03-17T13:38:38;5.88;;;2.75;;
45136;SDS011;30894;51.740;19.498;2024-03-17T13:41:07;4.57;;;2.22;;
45136;SDS011;30894;51.740;19.498;2024-03-17T13:43:36;3.53;;;1.65;;
45136;SDS011;30894;51.740;19.498;2024-03-17T13:46:02;3.90;;;1.58;;
45136;SDS011;30894;51.740;19.498;2024-03-17T13:48:30;4.15;;;1.75;;
45136;SDS011;30894;51.740;19.498;2024-03-17T13:51:00;3.42;;;1.65;;
45136;SDS011;30894;51.740;19.498;2024-03-17T13:53:27;5.13;;;1.70;;
45136;SDS011;30894;51.740;19.498;2024-03-17T13:55:54;3.30;;;1.70;;
45136;SDS011;30894;51.740;19.498;2024-03-17T13:58:22;3.83;;;1.77;;
45136;SDS011;30894;51.740;19.498;2024-03-17T14:00:50;4.78;;;2.05;;
45136;SDS011;30894;51.740;19.498;2024-03-17T14:03:22;3.70;;;2.03;;
45136;SDS011;30894;51.740;19.498;2024-03-17T14:05:49;2.85;;;1.50;;
45136;SDS011;30894;51.740;19.498;2024-03-17T14:08:19;3.85;;;1.65;;
45136;SDS011;30894;51.740;19.498;2024-03-17T14:10:45;5.65;;;1.35;;
45136;SDS011;30894;51.740;19.498;2024-03-17T14:13:13;2.30;;;0.70;;
45136;SDS011;30894;51.740;19.498;2024-03-17T14:15:40;2.28;;;1.25;;
45136;SDS011;30894;51.740;19.498;2024-03-17T14:18:06;3.38;;;1.17;;
45136;SDS011;30894;51.740;19.498;2024-03-17T14:20:40;1.25;;;0.75;;
45136;SDS011;30894;51.740;19.498;2024-03-17T14:23:16;2.08;;;1.00;;
45136;SDS011;30894;51.740;19.498;2024-03-17T14:25:45;3.63;;;1.42;;
45136;SDS011;30894;51.740;19.498;2024-03-17T14:28:12;2.03;;;0.93;;
45136;SDS011;30894;51.740;19.498;2024-03-17T14:30:39;3.25;;;0.90;;
45136;SDS011;30894;51.740;19.498;2024-03-17T14:33:17;2.63;;;1.02;;
45136;SDS011;30894;51.740;19.498;2024-03-17T14:35:47;1.45;;;0.93;;
45136;SDS011;30894;51.740;19.498;2024-03-17T14:38:23;2.58;;;1.20;;
45136;SDS011;30894;51.740;19.498;2024-03-17T14:40:53;2.63;;;1.02;;
45136;SDS011;30894;51.740;19.498;2024-03-17T14:43:23;2.25;;;0.98;;
45136;SDS011;30894;51.740;19.498;2024-03-17T14:45:50;3.67;;;1.10;;
45136;SDS011;30894;51.740;19.498;2024-03-17T14:48:23;2.10;;;1.10;;
45136;SDS011;30894;51.740;19.498;2024-03-17T14:50:50;2.45;;;1.00;;
45136;SDS011;30894;51.740;19.498;2024-03-17T14:53:19;2.03;;;1.13;;
45136;SDS011;30894;51.740;19.498;2024-03-17T14:55:46;1.88;;;1.05;;
45136;SDS011;30894;51.740;19.498;2024-03-17T14:58:27;2.33;;;1.33;;
45136;SDS011;30894;51.740;19.498;2024-03-17T15:00:57;1.92;;;1.02;;
45136;SDS011;30894;51.740;19.498;2024-03-17T15:03:29;2.45;;;1.42;;
45136;SDS011;30894;51.740;19.498;2024-03-17T15:05:56;2.60;;;1.42;;
45136;SDS011;30894;51.740;19.498;2024-03-17T15:08:32;2.83;;;1.50;;